RPi & Temperatures at JO21ut

Last graph updates: Saturday 25 May 2019 13:02 CEST

Sunrise: 05:28 & Sunset: 21:39 The Sun is currently visible at an elevation of 59.10 degrees and azimut of 176 and 151535993 Km from the Earth
Moonrise: 2:23 & Moonset: 11:24 Last Quarter Moon The Moon is 404976 Km from the Earth
Find here more details on MARS.

13:25:18 up 84 days, 11:15, 0 users, load average: 0.92, 0.55, 0.53
Current CPU frequency is: 1000 Mhz
Current GPU temperature: 31.476°C
Current inside temperature is 21.05°C with a humidity of 52.61%
Second inside temperature is 21.2°C with a pressure of 1014.52 Hpa (29.73 inHg) and an uncorrected altitude of -10.40 m
ds18b20 now showing 20.7°C

All the sensors I use, DHT22 | BMP085 | MPU6050 | BH1750FVI | MMA7455 | HMC5883L | MPL3115A2 | DS1307 | HTU21 | AM2321 | DS3231 | INA219 | LM75A , and it's current readout can be viewed here please be patient as it needs to read all sensors data. The page loads after about 10 seconds. In our forum more details can be found such as the used software/sources. Feel free to add yours also..


Pressure BMP085
Pressure BMP085
Pressure BMP085
Pressure BMP085
PI CPU Temp
Inet Volkel temp
Inside temp BMP085
Humidity BMP085
PI CPU Temp
Inet Volkel temp
Inside temp BMP085
Humidity BMP085
PI CPU Temp
Inet Volkel temp
Inside temp BMP085
Humidity BMP085
PI CPU Temp
Inet Volkel temp
Inside temp BMP085
Humidity BMP085
PI CPU Temp
Inet Volkel temp
Inside temp BMP085
Humidity BMP085
Inside light BH1750FV
Inside light BH1750FV
Inside light BH1750FV
Inside light BH1750FV
Inside light BH1750FV
Inside light BH1750FV
Sunlight hours
 

Sun & Moon height


Wijchen weather

Weer Widget
ScreenSaver yr.no

Sun Moon Earth


EHEH 251055Z AUTO VRB03KT 9999 FEW028 SCT092 OVC130 16/08 Q1018 BLU 30004KT 9999 SCT030 SCT090 BKN130 EHEH 251055Z AUTO VRB03KT 9999 FEW028 SCT092 OVC130 16/08 Q1018 BLU 30004KT 9999 SCT030 SCT090 BKN130 EHEH 251055Z AUTO VRB03KT 9999 FEW028 SCT092 OVC130 16/08 Q1018 BLU 30004KT 9999 SCT030 SCT090 BKN130

Weather data from Volkel [NL] EHVK


30 minutes ago, at 10:55 UTC, the wind was blowing at a speed of 2.1 meters per second (4.6 miles per hour/4 knots) from West/Northwest (300) in Volkel [EHVK], Netherlands. The temperature was 16 °C (61 °F) with a dewpoint of 8 °C (46 °F), and the pressure was 1,018 hPa (30.06 inHg). The relative humidity was 59.0%. There were a few clouds at a height of 853 meter (2800 feet), scattered clouds at a height of 2804 meter (9200 feet) and overcast at a height of 3962 meter (13000 feet). The visibility was >10 kilometers (>6.2 miles).




View code:

Contact me  |  My Raspberry PI forum